Time;durP1;ratioP1;P1;durP2;ratioP2;P2;SDS_P1;SDS_P2;PMS_P1;PMS_P2;Temp;Humidity;BMP_temperature;BMP_pressure;BME280_temperature;BME280_humidity;BME280_pressure;Samples;Min_cycle;Max_cycle;Signal;HPM_P1;HPM_P2
2021/09/21 00:00:44;;;;;;;5.70;5.30;;;14.70;99.90;;;;;;6228336;28;20987;-60
2021/09/21 00:03:47;;;;;;;6.43;5.93;;;14.70;99.90;;;;;;6228870;28;20468;-61
2021/09/21 00:06:50;;;;;;;6.07;5.47;;;14.70;99.90;;;;;;6228712;28;20487;-61
2021/09/21 00:09:53;;;;;;;7.70;5.87;;;14.80;99.90;;;;;;6228360;28;20468;-60
2021/09/21 00:12:56;;;;;;;6.10;5.50;;;14.70;99.90;;;;;;6228511;28;20491;-61
2021/09/21 00:16:02;;;;;;;8.23;5.87;;;14.70;99.90;;;;;;6228212;28;20486;-59
2021/09/21 00:19:05;;;;;;;7.20;5.80;;;14.70;99.90;;;;;;6217044;28;20466;-59
2021/09/21 00:22:08;;;;;;;14.17;6.70;;;14.70;99.90;;;;;;6215122;28;20859;-59
2021/09/21 00:25:13;;;;;;;6.53;6.03;;;14.70;99.90;;;;;;6224515;28;20467;-63
2021/09/21 00:28:17;;;;;;;6.00;5.53;;;14.70;99.90;;;;;;6227729;28;20461;-62
2021/09/21 00:31:22;;;;;;;6.70;6.00;;;14.70;99.90;;;;;;6213894;28;20559;-62
2021/09/21 00:34:28;;;;;;;7.23;6.43;;;14.70;99.90;;;;;;6209996;28;20449;-62
2021/09/21 00:37:31;;;;;;;6.30;5.80;;;14.70;99.90;;;;;;6201893;28;20488;-63
2021/09/21 00:40:34;;;;;;;8.60;7.47;;;14.70;99.90;;;;;;6217181;28;20479;-63
2021/09/21 00:43:37;;;;;;;5.87;5.27;;;14.70;99.90;;;;;;6225428;28;20463;-62
2021/09/21 00:46:42;;;;;;;8.13;6.80;;;14.70;99.90;;;;;;6226247;28;20471;-62
2021/09/21 00:49:45;;;;;;;6.20;5.70;;;14.70;99.90;;;;;;6226892;28;20467;-62
2021/09/21 00:52:48;;;;;;;5.93;5.33;;;14.70;99.90;;;;;;6226750;28;20476;-63
2021/09/21 00:55:52;;;;;;;6.07;5.57;;;14.70;99.90;;;;;;6227266;28;20480;-63
2021/09/21 00:58:55;;;;;;;6.57;6.00;;;14.70;99.90;;;;;;6227378;28;20467;-63
2021/09/21 01:02:00;;;;;;;6.43;5.83;;;14.70;99.90;;;;;;6227380;28;20488;-63
2021/09/21 01:05:04;;;;;;;7.00;6.40;;;14.70;99.90;;;;;;6227505;28;20932;-63
2021/09/21 01:08:07;;;;;;;6.80;5.40;;;14.70;99.90;;;;;;6226664;28;20479;-63
2021/09/21 01:11:11;;;;;;;6.13;5.63;;;14.70;99.90;;;;;;6226904;28;20570;-62
2021/09/21 01:14:15;;;;;;;6.57;5.97;;;14.60;99.90;;;;;;6227106;28;20868;-62
2021/09/21 01:17:20;;;;;;;7.10;6.50;;;14.60;99.90;;;;;;6227135;28;20959;-63
2021/09/21 01:20:23;;;;;;;7.53;6.03;;;14.60;99.90;;;;;;6226936;28;20480;-62
2021/09/21 01:23:27;;;;;;;7.00;5.67;;;14.60;99.90;;;;;;6226834;28;20467;-62
2021/09/21 01:26:31;;;;;;;9.07;7.03;;;14.50;99.90;;;;;;6226919;28;20487;-62
2021/09/21 01:29:34;;;;;;;6.10;5.53;;;14.50;99.90;;;;;;6226809;28;20534;-63
2021/09/21 01:32:37;;;;;;;6.40;5.80;;;14.50;99.90;;;;;;6226847;28;20995;-63
2021/09/21 01:35:41;;;;;;;6.30;5.70;;;14.50;99.90;;;;;;6217746;28;20928;-63
2021/09/21 01:38:46;;;;;;;6.27;5.70;;;14.50;99.90;;;;;;6226383;28;20831;-63
2021/09/21 01:41:49;;;;;;;7.10;6.50;;;14.40;99.90;;;;;;6226350;28;20468;-64
2021/09/21 01:44:52;;;;;;;6.30;5.70;;;14.40;99.90;;;;;;6226591;28;20468;-65
2021/09/21 01:47:58;;;;;;;6.57;5.93;;;14.40;99.90;;;;;;6226511;28;20472;-65
2021/09/21 01:51:03;;;;;;;6.20;5.70;;;14.40;99.90;;;;;;6226026;28;20983;-64
2021/09/21 01:54:18;;;;;;;10.60;5.57;;;14.40;99.90;;;;;;6226165;28;20764;-64
2021/09/21 02:00:41;;;;;;;6.50;6.00;;;14.30;99.90;;;;;;6226372;28;20472;-64
2021/09/21 02:03:46;;;;;;;7.47;5.97;;;14.30;99.90;;;;;;6225773;28;20479;-64
2021/09/21 02:06:51;;;;;;;6.03;5.53;;;14.30;99.90;;;;;;6226373;28;20476;-64
2021/09/21 02:09:55;;;;;;;6.80;6.03;;;14.30;99.90;;;;;;6225924;28;20784;-64
2021/09/21 02:12:58;;;;;;;6.27;5.77;;;14.20;99.90;;;;;;6225575;28;20491;-64
2021/09/21 02:16:02;;;;;;;6.67;5.93;;;14.20;99.90;;;;;;6226260;28;20475;-64
2021/09/21 02:19:05;;;;;;;5.97;5.37;;;14.20;99.90;;;;;;6225075;28;20475;-62
2021/09/21 02:22:09;;;;;;;12.00;6.27;;;14.10;99.90;;;;;;6225763;28;20472;-63
2021/09/21 02:25:13;;;;;;;6.67;6.13;;;14.10;99.90;;;;;;6225660;28;20464;-63
2021/09/21 02:28:16;;;;;;;7.00;5.97;;;14.10;99.90;;;;;;6225870;28;20447;-63
2021/09/21 02:31:20;;;;;;;7.30;6.60;;;14.10;99.90;;;;;;6225315;28;20936;-63
2021/09/21 02:34:24;;;;;;;6.53;5.93;;;14.10;99.90;;;;;;6225898;28;20495;-63
2021/09/21 02:37:27;;;;;;;6.90;6.27;;;14.10;99.90;;;;;;6225808;28;20444;-63
2021/09/21 02:40:31;;;;;;;6.53;5.77;;;14.10;99.90;;;;;;6225183;28;20503;-63
2021/09/21 02:43:35;;;;;;;6.43;5.83;;;14.10;99.90;;;;;;6226477;28;20464;-63
2021/09/21 02:46:38;;;;;;;6.80;6.20;;;14.10;99.90;;;;;;6225995;28;20467;-63
2021/09/21 02:49:41;;;;;;;6.90;6.30;;;14.00;99.90;;;;;;6225302;28;20479;-63
2021/09/21 02:52:44;;;;;;;8.00;5.60;;;14.00;99.90;;;;;;6224726;28;20478;-63
2021/09/21 02:55:49;;;;;;;6.37;5.87;;;14.00;99.90;;;;;;6224517;28;20460;-63
2021/09/21 02:58:52;;;;;;;7.33;6.70;;;14.10;99.90;;;;;;6225442;28;20464;-63
2021/09/21 03:01:55;;;;;;;6.33;5.63;;;14.10;99.90;;;;;;6224840;28;20499;-63
2021/09/21 03:05:01;;;;;;;6.63;6.03;;;14.10;99.90;;;;;;6225264;28;20467;-64
2021/09/21 03:08:08;;;;;;;8.53;5.50;;;14.10;99.90;;;;;;6224866;28;20480;-64
2021/09/21 03:11:16;;;;;;;6.63;6.03;;;14.10;99.90;;;;;;6225307;28;20819;-63
2021/09/21 03:17:40;;;;;;;6.90;6.30;;;14.10;99.90;;;;;;6225160;28;20487;-63
2021/09/21 03:20:43;;;;;;;7.73;6.87;;;14.10;99.90;;;;;;6224941;28;20484;-63
2021/09/21 03:23:46;;;;;;;9.27;5.80;;;14.10;99.90;;;;;;6224698;28;21042;-63
2021/09/21 03:26:50;;;;;;;5.60;5.20;;;14.10;99.90;;;;;;6224978;28;20820;-62
2021/09/21 03:29:53;;;;;;;7.00;6.40;;;14.10;99.90;;;;;;6224666;28;20472;-62
2021/09/21 03:32:57;;;;;;;9.27;5.43;;;14.10;99.90;;;;;;6229597;28;20484;-62
2021/09/21 03:36:00;;;;;;;7.93;7.20;;;14.10;99.90;;;;;;6229372;28;20475;-62
2021/09/21 03:39:04;;;;;;;6.27;5.77;;;14.10;99.90;;;;;;6229139;28;20490;-62
2021/09/21 03:42:09;;;;;;;6.80;6.10;;;14.10;99.90;;;;;;6229272;28;20486;-63
2021/09/21 03:45:12;;;;;;;6.43;5.50;;;14.10;99.90;;;;;;6219696;28;20529;-62
2021/09/21 03:48:16;;;;;;;5.83;5.33;;;14.10;99.90;;;;;;6229008;28;20475;-62
2021/09/21 03:51:19;;;;;;;5.97;5.47;;;14.10;99.90;;;;;;6228546;28;21162;-62
2021/09/21 03:54:22;;;;;;;7.03;6.43;;;14.00;99.90;;;;;;6228909;28;20975;-62
2021/09/21 03:57:26;;;;;;;6.63;6.03;;;14.00;99.90;;;;;;6228793;28;20793;-62
2021/09/21 04:00:30;;;;;;;7.30;6.20;;;14.00;99.90;;;;;;6228648;28;20476;-62
2021/09/21 04:03:33;;;;;;;9.30;6.47;;;14.00;99.90;;;;;;6229313;28;20479;-63
2021/09/21 04:06:36;;;;;;;6.50;5.90;;;13.90;99.90;;;;;;6229024;28;20479;-62
2021/09/21 04:09:39;;;;;;;7.40;6.70;;;13.90;99.90;;;;;;6228737;28;20596;-62
2021/09/21 04:12:44;;;;;;;9.53;6.30;;;13.90;99.90;;;;;;6228805;28;20495;-63
2021/09/21 04:15:47;;;;;;;7.60;6.50;;;13.80;99.90;;;;;;6228615;28;20909;-63
2021/09/21 04:18:50;;;;;;;6.73;6.13;;;13.90;99.90;;;;;;6228066;28;20533;-63
2021/09/21 04:21:54;;;;;;;7.47;6.77;;;13.90;99.90;;;;;;6228246;28;20486;-64
2021/09/21 04:24:57;;;;;;;7.20;6.50;;;13.90;99.90;;;;;;6228530;28;20527;-62
2021/09/21 04:28:01;;;;;;;8.27;7.57;;;13.90;99.90;;;;;;6228617;28;20541;-62
2021/09/21 04:31:09;;;;;;;6.73;6.03;;;13.90;99.90;;;;;;6228446;28;20476;-62
2021/09/21 04:34:16;;;;;;;7.23;6.47;;;13.90;99.90;;;;;;6228055;28;20483;-62
2021/09/21 04:37:19;;;;;;;6.90;6.37;;;13.90;99.90;;;;;;6227969;28;20712;-63
2021/09/21 04:40:22;;;;;;;7.60;6.80;;;13.90;99.90;;;;;;6227767;28;20479;-62
2021/09/21 04:43:28;;;;;;;6.80;6.17;;;13.90;99.90;;;;;;6227651;28;20967;-62
2021/09/21 04:46:33;;;;;;;6.47;5.87;;;14.00;99.90;;;;;;6218198;28;20484;-62
2021/09/21 04:49:36;;;;;;;5.83;5.33;;;13.90;99.90;;;;;;6227992;28;20475;-62
2021/09/21 04:52:40;;;;;;;6.57;5.97;;;13.90;99.90;;;;;;6227434;28;20475;-63
2021/09/21 04:55:44;;;;;;;7.10;5.90;;;14.00;99.90;;;;;;6227668;28;20471;-63
2021/09/21 04:58:48;;;;;;;5.80;5.30;;;13.90;99.90;;;;;;6227598;28;20951;-63
2021/09/21 05:01:51;;;;;;;6.70;6.10;;;13.90;99.90;;;;;;6227510;28;20820;-63
2021/09/21 05:04:54;;;;;;;7.07;6.10;;;14.00;99.90;;;;;;6227009;28;20794;-63
2021/09/21 05:07:59;;;;;;;10.27;7.60;;;14.00;99.90;;;;;;6227243;28;20475;-63
2021/09/21 05:11:02;;;;;;;8.47;7.67;;;14.00;99.90;;;;;;6227082;28;20475;-63
2021/09/21 05:14:07;;;;;;;9.50;7.43;;;14.00;99.90;;;;;;6226849;28;20956;-63
2021/09/21 05:17:10;;;;;;;6.83;6.20;;;14.00;99.90;;;;;;6226916;28;20960;-63
2021/09/21 05:20:13;;;;;;;7.70;6.50;;;14.00;99.90;;;;;;6227051;28;20503;-63
2021/09/21 05:23:16;;;;;;;6.93;6.43;;;14.00;99.90;;;;;;6227190;28;20479;-63
2021/09/21 05:26:20;;;;;;;7.93;7.13;;;14.00;99.90;;;;;;6227299;28;20529;-63
2021/09/21 05:29:24;;;;;;;9.60;6.80;;;14.00;99.90;;;;;;6226844;28;20483;-63
2021/09/21 05:32:27;;;;;;;8.43;6.77;;;14.10;99.90;;;;;;6226288;28;20476;-63
2021/09/21 05:35:30;;;;;;;8.10;6.40;;;14.10;99.90;;;;;;6226350;28;20468;-63
2021/09/21 05:38:33;;;;;;;7.30;6.63;;;14.10;99.90;;;;;;6226795;28;20471;-63
2021/09/21 05:41:37;;;;;;;8.20;7.43;;;14.10;99.90;;;;;;6225787;28;20488;-63
2021/09/21 05:44:41;;;;;;;8.70;7.83;;;14.20;99.90;;;;;;6225933;28;20480;-62
2021/09/21 05:47:46;;;;;;;8.10;7.13;;;14.20;99.90;;;;;;6225884;28;20476;-62
2021/09/21 05:50:49;;;;;;;10.80;8.10;;;14.20;99.90;;;;;;6220744;28;20488;-62
2021/09/21 05:53:53;;;;;;;8.17;7.40;;;14.30;99.90;;;;;;6225594;28;20484;-62
2021/09/21 05:56:56;;;;;;;7.03;6.27;;;14.30;99.90;;;;;;6225555;28;20480;-62
2021/09/21 06:00:01;;;;;;;7.40;6.80;;;14.40;99.90;;;;;;6225473;28;20546;-62
2021/09/21 06:03:04;;;;;;;9.33;7.90;;;14.40;99.90;;;;;;6226166;28;20499;-63
2021/09/21 06:06:08;;;;;;;7.93;7.23;;;14.40;99.90;;;;;;6225166;28;20472;-63
2021/09/21 06:09:11;;;;;;;7.33;6.60;;;14.40;99.90;;;;;;6224682;28;20479;-63
2021/09/21 06:12:14;;;;;;;8.10;7.30;;;14.40;99.90;;;;;;6224545;28;20482;-63
2021/09/21 06:15:20;;;;;;;8.97;8.07;;;14.40;99.90;;;;;;6224552;28;20476;-64
2021/09/21 06:18:23;;;;;;;8.93;8.10;;;14.50;99.90;;;;;;6224342;28;20488;-64
2021/09/21 06:21:27;;;;;;;9.10;8.37;;;14.50;99.90;;;;;;6224478;28;20818;-64
2021/09/21 06:24:30;;;;;;;8.50;7.67;;;14.50;99.90;;;;;;6225102;28;20805;-64
2021/09/21 06:27:34;;;;;;;12.93;6.83;;;14.60;99.90;;;;;;6225278;28;20836;-64
2021/09/21 06:30:39;;;;;;;9.03;7.40;;;14.70;99.90;;;;;;6224914;28;20507;-64
2021/09/21 06:33:42;;;;;;;8.53;7.07;;;14.60;99.90;;;;;;6223469;28;20567;-65
2021/09/21 06:36:45;;;;;;;7.80;7.10;;;14.70;99.90;;;;;;6224968;28;20467;-64
2021/09/21 06:39:48;;;;;;;6.80;6.10;;;14.70;99.90;;;;;;6225611;28;20471;-64
2021/09/21 06:42:51;;;;;;;8.87;7.97;;;14.70;99.90;;;;;;6225822;28;20472;-62
2021/09/21 06:45:56;;;;;;;9.00;8.23;;;14.70;99.90;;;;;;6223404;28;20479;-64
2021/09/21 06:49:00;;;;;;;8.97;8.10;;;14.60;99.90;;;;;;6223516;28;20499;-64
2021/09/21 06:52:03;;;;;;;10.47;7.53;;;14.70;99.90;;;;;;6225041;28;20492;-63
2021/09/21 06:55:08;;;;;;;9.03;7.30;;;14.70;99.90;;;;;;6224785;28;20836;-63
2021/09/21 06:58:11;;;;;;;10.10;9.10;;;14.70;99.90;;;;;;6196938;28;20475;-65
2021/09/21 07:01:16;;;;;;;10.37;7.80;;;14.70;99.90;;;;;;6213167;28;20464;-64
2021/09/21 07:04:22;;;;;;;9.60;8.70;;;14.80;99.90;;;;;;6205786;28;20604;-64
2021/09/21 07:07:25;;;;;;;9.00;8.30;;;14.70;99.90;;;;;;6220333;28;20503;-64
2021/09/21 07:10:28;;;;;;;13.63;9.30;;;14.70;99.90;;;;;;6208855;28;20468;-64
2021/09/21 07:13:31;;;;;;;9.90;9.00;;;14.70;99.90;;;;;;6205649;28;20449;-63
2021/09/21 07:16:36;;;;;;;14.10;9.63;;;14.70;99.90;;;;;;6205536;28;20813;-63
2021/09/21 07:19:39;;;;;;;10.60;8.47;;;14.70;99.90;;;;;;6205617;28;20979;-63
2021/09/21 07:22:42;;;;;;;9.63;8.67;;;14.70;99.90;;;;;;6205555;28;20547;-63
2021/09/21 07:25:45;;;;;;;9.53;8.37;;;14.70;99.90;;;;;;6205729;28;20987;-64
2021/09/21 07:28:48;;;;;;;9.20;8.40;;;14.70;99.90;;;;;;6205172;28;20472;-64
2021/09/21 07:31:53;;;;;;;9.80;8.77;;;14.70;99.90;;;;;;6205404;28;20476;-64
2021/09/21 07:34:57;;;;;;;8.93;8.13;;;14.70;99.90;;;;;;6205110;28;20479;-64
2021/09/21 07:38:00;;;;;;;9.90;8.90;;;14.80;99.90;;;;;;6204889;28;20476;-64
2021/09/21 07:41:03;;;;;;;10.57;8.47;;;14.80;99.90;;;;;;6221818;28;20491;-64
2021/09/21 07:44:06;;;;;;;10.33;8.27;;;14.80;99.90;;;;;;6229133;28;20467;-64
2021/09/21 07:47:11;;;;;;;8.53;7.83;;;14.90;99.90;;;;;;6229489;28;20478;-65
2021/09/21 07:50:18;;;;;;;10.03;8.50;;;15.00;99.90;;;;;;6228929;28;21051;-64
2021/09/21 07:53:22;;;;;;;9.30;8.50;;;15.10;99.90;;;;;;6229465;28;20892;-64
2021/09/21 07:56:25;;;;;;;9.07;8.17;;;15.20;99.90;;;;;;6228822;28;20858;-64
2021/09/21 07:59:28;;;;;;;9.40;8.60;;;15.20;99.90;;;;;;6219933;28;20472;-64
2021/09/21 08:02:33;;;;;;;8.53;7.73;;;15.30;99.90;;;;;;6227682;28;20486;-64
2021/09/21 08:05:36;;;;;;;9.23;8.20;;;15.40;99.90;;;;;;6214603;28;20487;-64
2021/09/21 08:08:40;;;;;;;9.27;8.47;;;15.60;99.90;;;;;;6217716;28;20473;-64
2021/09/21 08:11:44;;;;;;;10.17;8.33;;;15.80;99.90;;;;;;6211061;28;20484;-62
2021/09/21 08:14:49;;;;;;;9.23;8.20;;;15.90;99.90;;;;;;6226429;28;20805;-64
2021/09/21 08:17:54;;;;;;;9.03;7.90;;;15.80;99.90;;;;;;6224896;28;20807;-61
2021/09/21 08:20:57;;;;;;;8.87;7.97;;;15.80;99.90;;;;;;6217071;28;20471;-62
2021/09/21 08:24:01;;;;;;;11.00;8.53;;;15.80;99.90;;;;;;6208750;28;20585;-62
2021/09/21 08:27:04;;;;;;;8.90;7.77;;;15.90;99.90;;;;;;6203389;28;20477;-62
2021/09/21 08:30:08;;;;;;;8.37;6.97;;;15.90;99.90;;;;;;6216188;28;20487;-64
2021/09/21 08:33:13;;;;;;;8.27;7.57;;;15.80;99.90;;;;;;6228222;28;20479;-61
2021/09/21 08:36:16;;;;;;;9.67;8.33;;;15.80;99.90;;;;;;6228192;28;20495;-63
2021/09/21 08:39:20;;;;;;;8.70;7.90;;;15.80;99.90;;;;;;6227823;28;21014;-62
2021/09/21 08:42:24;;;;;;;10.53;8.30;;;15.80;99.90;;;;;;6227316;28;20487;-62
2021/09/21 08:45:28;;;;;;;8.87;8.07;;;15.90;99.90;;;;;;6227381;28;20472;-62
2021/09/21 08:48:32;;;;;;;14.50;9.13;;;16.00;99.90;;;;;;6227445;28;20463;-62
2021/09/21 08:51:37;;;;;;;10.33;8.63;;;16.00;99.90;;;;;;6226944;28;20484;-63
2021/09/21 08:54:40;;;;;;;9.83;8.80;;;15.90;99.90;;;;;;6227242;28;20467;-62
2021/09/21 08:57:44;;;;;;;10.63;9.00;;;16.00;99.90;;;;;;6227019;28;20753;-61
2021/09/21 09:00:47;;;;;;;9.37;8.50;;;16.00;99.90;;;;;;6218278;28;20479;-62
2021/09/21 09:03:56;;;;;;;9.20;8.17;;;16.00;99.90;;;;;;6217859;28;20472;-63
2021/09/21 09:07:01;;;;;;;8.63;7.93;;;15.90;99.90;;;;;;6227235;28;20479;-61
2021/09/21 09:10:06;;;;;;;9.37;8.37;;;15.90;99.90;;;;;;6226935;28;20471;-62
2021/09/21 09:13:18;;;;;;;8.30;7.50;;;15.90;99.90;;;;;;6226751;28;20526;-60
2021/09/21 09:16:25;;;;;;;8.57;7.73;;;15.80;99.90;;;;;;6226672;28;20476;-61
2021/09/21 09:19:35;;;;;;;9.23;7.77;;;15.80;99.90;;;;;;6227061;28;20425;-62
2021/09/21 09:22:38;;;;;;;9.00;8.13;;;15.80;99.90;;;;;;6227084;28;20487;-62
2021/09/21 09:25:42;;;;;;;9.03;8.23;;;15.70;99.90;;;;;;6226330;28;20456;-62
2021/09/21 09:28:46;;;;;;;9.00;8.20;;;15.70;99.90;;;;;;6226762;28;20482;-61
2021/09/21 09:31:49;;;;;;;9.60;8.70;;;15.60;99.90;;;;;;6212010;28;20484;-62
2021/09/21 09:34:58;;;;;;;10.90;8.97;;;15.60;99.90;;;;;;6201825;28;20811;-63
2021/09/21 09:38:05;;;;;;;10.10;9.13;;;15.50;99.90;;;;;;6202138;28;20476;-61
2021/09/21 09:41:08;;;;;;;9.30;8.50;;;15.50;99.90;;;;;;6201501;28;20983;-63
2021/09/21 09:44:13;;;;;;;11.63;8.97;;;15.50;99.90;;;;;;6209644;28;20558;-63
2021/09/21 09:47:17;;;;;;;8.60;7.73;;;15.70;99.90;;;;;;6208974;28;20467;-63
2021/09/21 09:50:27;;;;;;;9.93;9.00;;;15.90;99.90;;;;;;6226281;28;20490;-64
2021/09/21 09:53:30;;;;;;;10.37;8.90;;;16.20;99.90;;;;;;6225585;28;20505;-63
2021/09/21 09:56:33;;;;;;;9.20;8.40;;;16.40;99.80;;;;;;6225849;28;20468;-64
2021/09/21 09:59:37;;;;;;;13.33;7.40;;;16.50;99.20;;;;;;6226169;28;20982;-61
2021/09/21 10:02:41;;;;;;;9.00;8.00;;;16.70;99.00;;;;;;6226186;28;20542;-63
2021/09/21 10:05:46;;;;;;;8.97;8.17;;;16.60;98.90;;;;;;6221111;28;20492;-61
2021/09/21 10:08:52;;;;;;;11.60;8.80;;;16.80;98.80;;;;;;6225591;28;20468;-62
2021/09/21 10:11:57;;;;;;;11.60;8.70;;;16.90;99.00;;;;;;6225329;28;20475;-62
2021/09/21 10:15:00;;;;;;;11.83;8.80;;;16.90;97.60;;;;;;6225500;28;20479;-62
2021/09/21 10:18:03;;;;;;;8.43;7.43;;;17.00;97.60;;;;;;6225542;28;20480;-60
2021/09/21 10:21:08;;;;;;;9.80;8.80;;;17.20;97.30;;;;;;6225662;28;20483;-62
2021/09/21 10:24:12;;;;;;;11.60;8.97;;;17.30;97.30;;;;;;6225075;28;20960;-62
2021/09/21 10:27:19;;;;;;;9.30;8.50;;;17.40;96.90;;;;;;6225351;28;20472;-63
2021/09/21 10:30:24;;;;;;;9.73;8.73;;;17.60;96.40;;;;;;6225526;28;20517;-61
2021/09/21 10:33:28;;;;;;;10.17;9.17;;;18.10;95.60;;;;;;6225220;28;20475;-62
2021/09/21 10:36:33;;;;;;;9.00;8.00;;;18.60;94.40;;;;;;6225253;28;20480;-63
2021/09/21 10:39:36;;;;;;;9.67;8.43;;;19.10;94.20;;;;;;6224491;28;20471;-62
2021/09/21 10:42:51;;;;;;;10.10;8.50;;;19.60;93.40;;;;;;6224584;28;20237;-63
2021/09/21 10:46:08;;;;;;;10.33;9.33;;;20.00;92.00;;;;;;6216586;28;20222;-62
2021/09/21 10:49:23;;;;;;;9.77;8.87;;;20.20;91.00;;;;;;6211201;28;20233;-63
2021/09/21 10:52:28;;;;;;;9.20;8.37;;;20.30;89.90;;;;;;6211090;28;20579;-63
2021/09/21 10:55:36;;;;;;;10.57;9.60;;;20.20;88.10;;;;;;6210837;28;20231;-63
2021/09/21 10:58:40;;;;;;;9.13;8.23;;;20.20;85.40;;;;;;6213784;28;20233;-63
2021/09/21 11:01:48;;;;;;;8.87;8.03;;;20.40;86.20;;;;;;6211697;28;20594;-63
2021/09/21 11:04:52;;;;;;;9.20;8.40;;;21.10;84.20;;;;;;6214081;28;20235;-63
2021/09/21 11:07:58;;;;;;;9.23;8.47;;;22.50;78.70;;;;;;6213893;28;20221;-62
2021/09/21 11:11:04;;;;;;;8.70;7.90;;;23.60;72.80;;;;;;6210643;28;20236;-63
2021/09/21 11:14:08;;;;;;;8.43;7.40;;;24.80;65.40;;;;;;6209450;28;20229;-62
2021/09/21 11:17:12;;;;;;;8.20;7.50;;;25.00;62.60;;;;;;6225061;28;20228;-63
2021/09/21 11:20:15;;;;;;;8.43;7.73;;;26.50;57.20;;;;;;6224859;28;20232;-63
2021/09/21 11:23:22;;;;;;;9.43;8.30;;;27.50;53.90;;;;;;6213522;28;20220;-62
2021/09/21 11:26:25;;;;;;;10.57;8.23;;;28.10;51.00;;;;;;6211482;28;20573;-62
2021/09/21 11:29:29;;;;;;;7.83;7.03;;;28.30;48.20;;;;;;6200161;28;20245;-63
2021/09/21 11:32:32;;;;;;;8.20;7.50;;;28.80;46.80;;;;;;6202013;28;20243;-63
2021/09/21 11:35:36;;;;;;;8.97;8.27;;;28.20;45.80;;;;;;6214770;28;20239;-63
2021/09/21 11:38:42;;;;;;;8.23;7.43;;;27.60;46.00;;;;;;6213164;28;20680;-63
2021/09/21 11:41:52;;;;;;;8.33;7.53;;;27.30;47.20;;;;;;6219025;28;20669;-63
2021/09/21 11:44:59;;;;;;;8.20;7.50;;;26.60;46.90;;;;;;6210495;28;20244;-62
2021/09/21 11:48:03;;;;;;;7.90;7.20;;;26.10;47.50;;;;;;6211690;28;20239;-62
2021/09/21 11:51:06;;;;;;;7.07;6.57;;;25.50;48.10;;;;;;6223668;28;20678;-63
2021/09/21 11:54:12;;;;;;;7.33;6.73;;;25.70;47.80;;;;;;6228862;28;20238;-62
2021/09/21 11:57:15;;;;;;;7.00;6.50;;;26.60;45.50;;;;;;6228126;28;20648;-62
2021/09/21 12:00:30;;;;;;;8.87;6.87;;;26.90;44.70;;;;;;6228243;28;20243;-63
2021/09/21 12:03:34;;;;;;;8.40;7.70;;;26.80;45.70;;;;;;6214849;28;20225;-62
2021/09/21 12:06:38;;;;;;;7.67;6.93;;;26.50;45.40;;;;;;6222824;28;20744;-62
2021/09/21 12:09:44;;;;;;;7.90;7.30;;;26.10;45.70;;;;;;6228037;28;20228;-63
2021/09/21 12:13:03;;;;;;;7.10;6.57;;;26.70;44.90;;;;;;6227704;28;20232;-63
2021/09/21 12:16:08;;;;;;;9.10;6.97;;;26.90;44.20;;;;;;6223051;28;20575;-63
2021/09/21 12:19:16;;;;;;;6.90;6.30;;;26.40;44.30;;;;;;6227811;28;20228;-63
2021/09/21 12:22:20;;;;;;;7.60;7.00;;;25.80;45.10;;;;;;6205492;28;20225;-63
2021/09/21 12:25:31;;;;;;;8.23;6.60;;;25.10;46.30;;;;;;6214040;28;20292;-63
2021/09/21 12:28:37;;;;;;;8.20;7.50;;;24.70;47.00;;;;;;6202052;28;20244;-64
2021/09/21 12:31:42;;;;;;;6.50;6.00;;;24.40;47.30;;;;;;6201126;28;20562;-62
2021/09/21 12:34:45;;;;;;;7.17;6.47;;;24.10;47.50;;;;;;6201514;28;20695;-64
2021/09/21 12:37:53;;;;;;;7.50;6.80;;;23.90;48.20;;;;;;6201696;28;20237;-64
2021/09/21 12:40:58;;;;;;;6.10;5.57;;;23.70;49.10;;;;;;6211672;28;20244;-64
2021/09/21 12:44:05;;;;;;;6.53;5.93;;;23.90;49.90;;;;;;6226741;28;20233;-62
2021/09/21 12:47:09;;;;;;;6.80;6.20;;;24.30;48.20;;;;;;6227912;28;20231;-62
2021/09/21 12:50:17;;;;;;;7.03;6.50;;;24.50;48.80;;;;;;6227509;28;20256;-63
2021/09/21 12:53:20;;;;;;;6.27;5.70;;;25.20;46.90;;;;;;6227495;28;20248;-61
2021/09/21 12:56:25;;;;;;;7.90;6.77;;;25.30;46.80;;;;;;6227197;28;20233;-62
2021/09/21 12:59:30;;;;;;;6.93;6.43;;;25.50;46.40;;;;;;6227442;28;20673;-61
2021/09/21 13:02:33;;;;;;;8.00;7.30;;;25.60;45.80;;;;;;6226811;28;20248;-61
2021/09/21 13:05:39;;;;;;;7.13;6.53;;;26.20;44.70;;;;;;6221136;28;20674;-62
2021/09/21 13:08:42;;;;;;;6.17;5.67;;;27.20;43.70;;;;;;6214233;28;20530;-61
2021/09/21 13:11:47;;;;;;;6.37;5.77;;;28.00;42.80;;;;;;6226764;28;20246;-62
2021/09/21 13:14:50;;;;;;;6.37;5.77;;;28.50;41.20;;;;;;6226154;28;20247;-63
2021/09/21 13:17:54;;;;;;;7.07;6.47;;;28.20;40.80;;;;;;6216830;28;20576;-63
2021/09/21 13:20:57;;;;;;;8.27;6.70;;;27.00;42.00;;;;;;6226350;28;20236;-62
2021/09/21 13:24:00;;;;;;;8.10;7.37;;;26.10;43.30;;;;;;6225861;28;20298;-61
2021/09/21 13:27:05;;;;;;;6.60;6.03;;;25.50;44.50;;;;;;6206338;28;20233;-61
2021/09/21 13:30:11;;;;;;;6.93;6.43;;;24.70;45.90;;;;;;6202035;28;20225;-62
2021/09/21 13:33:14;;;;;;;6.87;6.27;;;24.30;46.20;;;;;;6202596;28;20233;-63
2021/09/21 13:36:18;;;;;;;7.97;6.20;;;24.10;47.50;;;;;;6226282;28;20232;-63
2021/09/21 13:39:21;;;;;;;8.03;6.80;;;23.80;47.30;;;;;;6226665;28;20251;-62
2021/09/21 13:42:26;;;;;;;6.40;5.80;;;23.50;47.80;;;;;;6226246;28;20581;-61
2021/09/21 13:45:29;;;;;;;6.87;6.20;;;23.20;48.20;;;;;;6226334;28;20236;-63
2021/09/21 13:48:32;;;;;;;7.30;6.57;;;23.00;48.50;;;;;;6226184;28;20225;-63
2021/09/21 13:51:35;;;;;;;7.00;6.40;;;22.80;49.40;;;;;;6213498;28;20228;-63
2021/09/21 13:54:38;;;;;;;6.83;6.20;;;22.60;50.00;;;;;;6221208;28;20616;-63
2021/09/21 13:57:43;;;;;;;7.60;6.90;;;22.70;50.00;;;;;;6225159;28;20228;-62
2021/09/21 14:00:47;;;;;;;6.33;5.83;;;22.70;49.90;;;;;;6201457;28;20569;-63
2021/09/21 14:03:50;;;;;;;7.73;6.70;;;22.30;49.70;;;;;;6203255;28;20287;-63
2021/09/21 14:06:53;;;;;;;8.70;6.30;;;21.10;51.20;;;;;;6213666;28;20229;-63
2021/09/21 14:09:57;;;;;;;6.57;6.07;;;20.40;53.20;;;;;;6211777;28;20236;-62
2021/09/21 14:13:02;;;;;;;6.20;5.70;;;20.40;54.30;;;;;;6213736;28;20275;-63
2021/09/21 14:16:06;;;;;;;7.13;5.80;;;20.30;53.50;;;;;;6212537;28;20225;-62
2021/09/21 14:19:14;;;;;;;6.37;5.87;;;20.60;53.70;;;;;;6200959;28;20233;-62
2021/09/21 14:22:17;;;;;;;6.77;6.00;;;20.50;53.60;;;;;;6221044;28;20224;-62
2021/09/21 14:25:22;;;;;;;6.73;5.73;;;20.50;53.80;;;;;;6225945;28;20252;-62
2021/09/21 14:28:27;;;;;;;7.23;5.50;;;20.70;54.10;;;;;;6225432;28;20216;-61
2021/09/21 14:31:30;;;;;;;6.60;6.00;;;20.70;54.50;;;;;;6225606;28;20225;-62
2021/09/21 14:34:35;;;;;;;6.07;5.50;;;20.80;54.30;;;;;;6225001;28;20230;-62
2021/09/21 14:37:39;;;;;;;10.70;5.80;;;20.40;54.60;;;;;;6224912;28;20298;-63
2021/09/21 14:40:42;;;;;;;5.90;5.37;;;20.30;55.20;;;;;;6225099;28;20228;-62
2021/09/21 14:43:46;;;;;;;6.10;5.60;;;20.20;56.30;;;;;;6224870;28;20551;-61
2021/09/21 14:46:50;;;;;;;6.50;5.90;;;20.10;56.10;;;;;;6214970;28;20247;-61
2021/09/21 14:49:53;;;;;;;6.27;5.77;;;20.00;56.80;;;;;;6211074;28;20228;-62
2021/09/21 14:52:57;;;;;;;5.17;4.67;;;20.00;56.70;;;;;;6225006;28;20307;-63
2021/09/21 14:56:00;;;;;;;5.97;5.37;;;20.10;56.90;;;;;;6224745;28;20228;-62
2021/09/21 14:59:05;;;;;;;7.13;6.43;;;20.20;57.10;;;;;;6224804;28;20376;-62
2021/09/21 15:02:09;;;;;;;9.30;5.00;;;19.60;59.10;;;;;;6224341;28;20608;-62
2021/09/21 15:05:13;;;;;;;6.00;5.30;;;19.10;62.00;;;;;;6224794;28;20221;-63
2021/09/21 15:08:16;;;;;;;7.33;5.40;;;19.00;63.80;;;;;;6224524;28;20220;-62
2021/09/21 15:11:19;;;;;;;4.57;4.17;;;18.80;64.00;;;;;;6203794;28;20565;-62
2021/09/21 15:14:24;;;;;;;5.37;4.97;;;18.50;65.50;;;;;;6211721;28;20243;-63
2021/09/21 15:17:27;;;;;;;6.00;5.40;;;18.50;65.60;;;;;;6224528;28;20463;-63
2021/09/21 15:20:31;;;;;;;4.67;4.30;;;18.20;66.10;;;;;;6218574;28;20480;-63
2021/09/21 15:23:34;;;;;;;6.17;5.63;;;18.10;66.80;;;;;;6200120;28;20499;-63
2021/09/21 15:26:37;;;;;;;4.57;4.27;;;18.00;67.60;;;;;;6201297;28;20499;-63
2021/09/21 15:29:42;;;;;;;5.50;5.00;;;18.00;68.10;;;;;;6204941;28;20483;-64
2021/09/21 15:32:45;;;;;;;6.10;5.50;;;18.10;68.30;;;;;;6204693;28;20843;-61
2021/09/21 15:35:50;;;;;;;5.23;4.83;;;18.20;68.40;;;;;;6204769;28;20488;-60
2021/09/21 15:38:53;;;;;;;4.70;4.30;;;18.30;67.60;;;;;;6215207;28;20483;-61
2021/09/21 15:41:57;;;;;;;5.27;4.87;;;18.30;67.30;;;;;;6217076;28;20487;-61
2021/09/21 15:45:01;;;;;;;5.53;5.00;;;17.90;68.10;;;;;;6214948;28;20956;-61
2021/09/21 15:48:05;;;;;;;5.20;4.80;;;18.00;68.60;;;;;;6204489;28;20587;-62
2021/09/21 15:51:10;;;;;;;4.37;4.07;;;18.00;68.30;;;;;;6214218;28;20494;-60
2021/09/21 15:54:13;;;;;;;7.27;4.70;;;17.90;68.70;;;;;;6228700;28;20977;-60
2021/09/21 15:57:16;;;;;;;4.43;4.03;;;17.90;69.20;;;;;;6226758;28;20486;-60
2021/09/21 16:00:29;;;;;;;4.80;4.00;;;17.80;69.10;;;;;;6204408;28;20478;-60
2021/09/21 16:03:32;;;;;;;5.17;4.50;;;17.70;68.40;;;;;;6230473;28;20971;-60